PWSweather.com
Personal Weather Stations
Station Observations
SD92115WX
El Cerrito Stoneybluff, San Diego, CA 92115

El Cerrito StoneybluffSan Diego, CA 92115

Lat: 32.754096, Lon: -117.066705

Elevation: 420

Station Type: Davis Vantage Vue

http://stoneybluff.com

High Low Average
Temperature 75.4°F24.1°C 64.4°F18.0°C 68.5°F20.3°C
Dew Point 63.7°F17.6°C 60.8°F16.0°C 62.2°F16.8°C
Winds 10.7 mph 17.2 kmh Calm Calm 3.0 mph SW4.8 kmh SW
Wind Gusts 17.0 mph27.4 kmh -- 7.0 mph11.3 kmh
Humidity 90% 65% 81%
Pressure 29.80 in1009.1 mb 29.72 in1006.4 mb -
Precipitation 0.00 in0.0 mm - -
Hour Temp Dew Point Humidity Winds Wind Gusts Pressure Precip Precip Rate Daily Precip Total
12:02 AM 68.4°F20.2°C 63.7°F17.6°C 85% 2.5 mph SSE4.0 kmh SSE 4.3 mph6.9 kmh 29.73 in1006.8 mb 0.00 in0.0 mm 0.00 in0.0 mm 0.00 in0.0 mm
12:07 AM 68.2°F20.1°C 63.5°F17.5°C 85% Calm Calm 4.3 mph6.9 kmh 29.73 in1006.8 mb 0.00 in0.0 mm 0.00 in0.0 mm 0.00 in0.0 mm
12:12 AM 68.2°F20.1°C 63.5°F17.5°C 85% 2.0 mph SW3.2 kmh SW 4.3 mph6.9 kmh 29.73 in1006.8 mb 0.00 in0.0 mm 0.00 in0.0 mm 0.00 in0.0 mm
12:17 AM 68.0°F20.0°C 63.3°F17.4°C 85% Calm Calm 2.0 mph3.2 kmh 29.73 in1006.8 mb 0.00 in0.0 mm 0.00 in0.0 mm 0.00 in0.0 mm
12:22 AM 68.0°F20.0°C 63.3°F17.4°C 85% 2.2 mph SW3.5 kmh SW 4.3 mph6.9 kmh 29.73 in1006.8 mb 0.00 in0.0 mm 0.00 in0.0 mm 0.00 in0.0 mm
12:27 AM 68.2°F20.1°C 63.5°F17.5°C 85% 1.3 mph SSE2.1 kmh SSE 5.4 mph8.7 kmh 29.73 in1006.8 mb 0.00 in0.0 mm 0.00 in0.0 mm 0.00 in0.0 mm
12:32 AM 68.0°F20.0°C 63.3°F17.4°C 85% 0.2 mph S0.3 kmh S 4.3 mph6.9 kmh 29.73 in1006.8 mb 0.00 in0.0 mm 0.00 in0.0 mm 0.00 in0.0 mm
12:37 AM 67.8°F19.9°C 63.1°F17.3°C 85% Calm Calm -- 29.73 in1006.8 mb 0.00 in0.0 mm 0.00 in0.0 mm 0.00 in0.0 mm
12:42 AM 68.0°F20.0°C 63.3°F17.4°C 85% Calm Calm -- 29.73 in1006.8 mb 0.00 in0.0 mm 0.00 in0.0 mm 0.00 in0.0 mm
12:47 AM 68.0°F20.0°C 63.3°F17.4°C 85% Calm Calm -- 29.73 in1006.8 mb 0.00 in0.0 mm 0.00 in0.0 mm 0.00 in0.0 mm
12:52 AM 68.0°F20.0°C 63.3°F17.4°C 85% Calm Calm 1.1 mph1.8 kmh 29.73 in1006.8 mb 0.00 in0.0 mm 0.00 in0.0 mm 0.00 in0.0 mm
12:57 AM 67.8°F19.9°C 63.1°F17.3°C 85% Calm Calm -- 29.73 in1006.8 mb 0.00 in0.0 mm 0.00 in0.0 mm 0.00 in0.0 mm
01:02 AM 67.8°F19.9°C 63.1°F17.3°C 85% 1.3 mph SSW2.1 kmh SSW 3.1 mph5.0 kmh 29.73 in1006.8 mb 0.00 in0.0 mm 0.00 in0.0 mm 0.00 in0.0 mm
01:07 AM 67.8°F19.9°C 63.1°F17.3°C 85% 1.3 mph SSW2.1 kmh SSW 3.1 mph5.0 kmh 29.73 in1006.8 mb 0.00 in0.0 mm 0.00 in0.0 mm 0.00 in0.0 mm
01:12 AM 67.6°F19.8°C 63.0°F17.2°C 85% 2.0 mph SW3.2 kmh SW 4.3 mph6.9 kmh 29.72 in1006.4 mb 0.00 in0.0 mm 0.00 in0.0 mm 0.00 in0.0 mm
01:17 AM 67.6°F19.8°C 63.0°F17.2°C 85% 0.2 mph SW0.3 kmh SW 4.3 mph6.9 kmh 29.72 in1006.4 mb 0.00 in0.0 mm 0.00 in0.0 mm 0.00 in0.0 mm
01:22 AM 67.6°F19.8°C 63.0°F17.2°C 85% Calm Calm -- 29.73 in1006.8 mb 0.00 in0.0 mm 0.00 in0.0 mm 0.00 in0.0 mm
01:27 AM 67.5°F19.7°C 62.8°F17.1°C 85% 2.9 mph SW4.7 kmh SW 4.3 mph6.9 kmh 29.73 in1006.8 mb 0.00 in0.0 mm 0.00 in0.0 mm 0.00 in0.0 mm
01:32 AM 67.5°F19.7°C 63.1°F17.3°C 86% 1.8 mph W2.9 kmh W 5.4 mph8.7 kmh 29.72 in1006.4 mb 0.00 in0.0 mm 0.00 in0.0 mm 0.00 in0.0 mm
01:37 AM 67.5°F19.7°C 63.1°F17.3°C 86% Calm Calm 1.1 mph1.8 kmh 29.72 in1006.4 mb 0.00 in0.0 mm 0.00 in0.0 mm 0.00 in0.0 mm
01:42 AM 67.3°F19.6°C 63.0°F17.2°C 86% Calm Calm 2.0 mph3.2 kmh 29.73 in1006.8 mb 0.00 in0.0 mm 0.00 in0.0 mm 0.00 in0.0 mm
01:47 AM 67.3°F19.6°C 63.0°F17.2°C 86% 0.7 mph WNW1.1 kmh WNW 3.1 mph5.0 kmh 29.73 in1006.8 mb 0.00 in0.0 mm 0.00 in0.0 mm 0.00 in0.0 mm
01:52 AM 67.3°F19.6°C 63.0°F17.2°C 86% Calm Calm 2.0 mph3.2 kmh 29.73 in1006.8 mb 0.00 in0.0 mm 0.00 in0.0 mm 0.00 in0.0 mm
01:57 AM 67.3°F19.6°C 63.0°F17.2°C 86% 1.6 mph SW2.6 kmh SW 4.3 mph6.9 kmh 29.73 in1006.8 mb 0.00 in0.0 mm 0.00 in0.0 mm 0.00 in0.0 mm
02:02 AM 67.3°F19.6°C 63.0°F17.2°C 86% 0.4 mph SW0.6 kmh SW 2.0 mph3.2 kmh 29.73 in1006.8 mb 0.00 in0.0 mm 0.00 in0.0 mm 0.00 in0.0 mm
02:07 AM 67.3°F19.6°C 63.0°F17.2°C 86% 2.5 mph SW4.0 kmh SW 4.3 mph6.9 kmh 29.73 in1006.8 mb 0.00 in0.0 mm 0.00 in0.0 mm 0.00 in0.0 mm
02:12 AM 67.1°F19.5°C 62.8°F17.1°C 86% 3.6 mph WSW5.8 kmh WSW 5.4 mph8.7 kmh 29.73 in1006.8 mb 0.00 in0.0 mm 0.00 in0.0 mm 0.00 in0.0 mm
02:17 AM 66.9°F19.4°C 62.6°F17.0°C 86% 2.2 mph SW3.5 kmh SW 5.4 mph8.7 kmh 29.73 in1006.8 mb 0.00 in0.0 mm 0.00 in0.0 mm 0.00 in0.0 mm
02:22 AM 66.7°F19.3°C 62.4°F16.9°C 86% 1.8 mph SW2.9 kmh SW 4.3 mph6.9 kmh 29.73 in1006.8 mb 0.00 in0.0 mm 0.00 in0.0 mm 0.00 in0.0 mm
02:27 AM 66.7°F19.3°C 62.4°F16.9°C 86% 3.1 mph SW5.0 kmh SW 5.4 mph8.7 kmh 29.73 in1006.8 mb 0.00 in0.0 mm 0.00 in0.0 mm 0.00 in0.0 mm
02:32 AM 66.6°F19.2°C 62.6°F17.0°C 87% 2.9 mph SW4.7 kmh SW 4.3 mph6.9 kmh 29.73 in1006.8 mb 0.00 in0.0 mm 0.00 in0.0 mm 0.00 in0.0 mm
02:37 AM 66.6°F19.2°C 62.6°F17.0°C 87% 1.3 mph SW2.1 kmh SW 4.3 mph6.9 kmh 29.73 in1006.8 mb 0.00 in0.0 mm 0.00 in0.0 mm 0.00 in0.0 mm
02:42 AM 66.6°F19.2°C 62.6°F17.0°C 87% 1.6 mph SW2.6 kmh SW 4.3 mph6.9 kmh 29.73 in1006.8 mb 0.00 in0.0 mm 0.00 in0.0 mm 0.00 in0.0 mm
02:47 AM 66.6°F19.2°C 62.6°F17.0°C 87% 2.5 mph SW4.0 kmh SW 3.1 mph5.0 kmh 29.73 in1006.8 mb 0.00 in0.0 mm 0.00 in0.0 mm 0.00 in0.0 mm
02:52 AM 66.4°F19.1°C 62.4°F16.9°C 87% 2.5 mph SW4.0 kmh SW 5.4 mph8.7 kmh 29.73 in1006.8 mb 0.00 in0.0 mm 0.00 in0.0 mm 0.00 in0.0 mm
02:57 AM 66.4°F19.1°C 62.4°F16.9°C 87% 2.5 mph SSW4.0 kmh SSW 5.4 mph8.7 kmh 29.73 in1006.8 mb 0.00 in0.0 mm 0.00 in0.0 mm 0.00 in0.0 mm
03:02 AM 66.4°F19.1°C 62.4°F16.9°C 87% 2.2 mph SSW3.5 kmh SSW 6.3 mph10.1 kmh 29.73 in1006.8 mb 0.00 in0.0 mm 0.00 in0.0 mm 0.00 in0.0 mm
03:07 AM 66.4°F19.1°C 62.4°F16.9°C 87% 3.8 mph WSW6.1 kmh WSW 6.3 mph10.1 kmh 29.73 in1006.8 mb 0.00 in0.0 mm 0.00 in0.0 mm 0.00 in0.0 mm
03:12 AM 66.4°F19.1°C 62.4°F16.9°C 87% 2.5 mph SW4.0 kmh SW 5.4 mph8.7 kmh 29.73 in1006.8 mb 0.00 in0.0 mm 0.00 in0.0 mm 0.00 in0.0 mm
03:17 AM 66.4°F19.1°C 62.8°F17.1°C 88% 3.6 mph SW5.8 kmh SW 5.4 mph8.7 kmh 29.74 in1007.1 mb 0.00 in0.0 mm 0.00 in0.0 mm 0.00 in0.0 mm
03:22 AM 66.4°F19.1°C 62.4°F16.9°C 87% 5.1 mph SW8.2 kmh SW 8.5 mph13.7 kmh 29.74 in1007.1 mb 0.00 in0.0 mm 0.00 in0.0 mm 0.00 in0.0 mm
03:27 AM 66.2°F19.0°C 62.6°F17.0°C 88% 2.0 mph SW3.2 kmh SW 7.4 mph11.9 kmh 29.74 in1007.1 mb 0.00 in0.0 mm 0.00 in0.0 mm 0.00 in0.0 mm
03:32 AM 66.0°F18.9°C 62.4°F16.9°C 88% 3.6 mph SW5.8 kmh SW 7.4 mph11.9 kmh 29.73 in1006.8 mb 0.00 in0.0 mm 0.00 in0.0 mm 0.00 in0.0 mm
03:37 AM 65.8°F18.8°C 62.2°F16.8°C 88% 3.6 mph SW5.8 kmh SW 7.4 mph11.9 kmh 29.74 in1007.1 mb 0.00 in0.0 mm 0.00 in0.0 mm 0.00 in0.0 mm
03:42 AM 65.8°F18.8°C 62.2°F16.8°C 88% 2.2 mph WSW3.5 kmh WSW 7.4 mph11.9 kmh 29.74 in1007.1 mb 0.00 in0.0 mm 0.00 in0.0 mm 0.00 in0.0 mm
03:47 AM 65.7°F18.7°C 62.1°F16.7°C 88% 2.9 mph WSW4.7 kmh WSW 6.3 mph10.1 kmh 29.74 in1007.1 mb 0.00 in0.0 mm 0.00 in0.0 mm 0.00 in0.0 mm
03:52 AM 65.5°F18.6°C 62.2°F16.8°C 89% 4.9 mph SSW7.9 kmh SSW 7.4 mph11.9 kmh 29.74 in1007.1 mb 0.00 in0.0 mm 0.00 in0.0 mm 0.00 in0.0 mm
03:57 AM 65.5°F18.6°C 62.2°F16.8°C 89% 3.1 mph SW5.0 kmh SW 8.5 mph13.7 kmh 29.74 in1007.1 mb 0.00 in0.0 mm 0.00 in0.0 mm 0.00 in0.0 mm
04:02 AM 65.3°F18.5°C 62.1°F16.7°C 89% 2.5 mph SW4.0 kmh SW 5.4 mph8.7 kmh 29.74 in1007.1 mb 0.00 in0.0 mm 0.00 in0.0 mm 0.00 in0.0 mm
04:07 AM 65.1°F18.4°C 61.9°F16.6°C 89% 2.0 mph SW3.2 kmh SW 5.4 mph8.7 kmh 29.74 in1007.1 mb 0.00 in0.0 mm 0.00 in0.0 mm 0.00 in0.0 mm
04:12 AM 65.1°F18.4°C 61.9°F16.6°C 89% 2.9 mph S4.7 kmh S 6.3 mph10.1 kmh 29.74 in1007.1 mb 0.00 in0.0 mm 0.00 in0.0 mm 0.00 in0.0 mm
04:17 AM 65.1°F18.4°C 62.1°F16.7°C 90% 2.9 mph SSW4.7 kmh SSW 5.4 mph8.7 kmh 29.74 in1007.1 mb 0.00 in0.0 mm 0.00 in0.0 mm 0.00 in0.0 mm
04:22 AM 65.1°F18.4°C 62.1°F16.7°C 90% 2.0 mph WSW3.2 kmh WSW 6.3 mph10.1 kmh 29.74 in1007.1 mb 0.00 in0.0 mm 0.00 in0.0 mm 0.00 in0.0 mm
04:27 AM 65.1°F18.4°C 62.1°F16.7°C 90% 2.9 mph SSW4.7 kmh SSW 5.4 mph8.7 kmh 29.74 in1007.1 mb 0.00 in0.0 mm 0.00 in0.0 mm 0.00 in0.0 mm
04:32 AM 65.1°F18.4°C 62.1°F16.7°C 90% 3.1 mph WSW5.0 kmh WSW 7.4 mph11.9 kmh 29.74 in1007.1 mb 0.00 in0.0 mm 0.00 in0.0 mm 0.00 in0.0 mm
04:37 AM 65.1°F18.4°C 62.1°F16.7°C 90% 4.7 mph SSW7.6 kmh SSW 7.4 mph11.9 kmh 29.75 in1007.5 mb 0.00 in0.0 mm 0.00 in0.0 mm 0.00 in0.0 mm
04:42 AM 64.9°F18.3°C 61.9°F16.6°C 90% 3.4 mph SW5.5 kmh SW 7.4 mph11.9 kmh 29.75 in1007.5 mb 0.00 in0.0 mm 0.00 in0.0 mm 0.00 in0.0 mm
04:47 AM 64.9°F18.3°C 61.9°F16.6°C 90% 2.7 mph SW4.3 kmh SW 6.3 mph10.1 kmh 29.75 in1007.5 mb 0.00 in0.0 mm 0.00 in0.0 mm 0.00 in0.0 mm
04:52 AM 64.9°F18.3°C 61.9°F16.6°C 90% 2.5 mph WSW4.0 kmh WSW 6.3 mph10.1 kmh 29.75 in1007.5 mb 0.00 in0.0 mm 0.00 in0.0 mm 0.00 in0.0 mm
04:57 AM 64.8°F18.2°C 61.7°F16.5°C 90% 2.5 mph W4.0 kmh W 6.3 mph10.1 kmh 29.75 in1007.5 mb 0.00 in0.0 mm 0.00 in0.0 mm 0.00 in0.0 mm
05:02 AM 64.8°F18.2°C 61.7°F16.5°C 90% 2.7 mph SW4.3 kmh SW 7.4 mph11.9 kmh 29.75 in1007.5 mb 0.00 in0.0 mm 0.00 in0.0 mm 0.00 in0.0 mm
05:07 AM 64.8°F18.2°C 61.7°F16.5°C 90% 2.7 mph SSW4.3 kmh SSW 6.3 mph10.1 kmh 29.75 in1007.5 mb 0.00 in0.0 mm 0.00 in0.0 mm 0.00 in0.0 mm
05:12 AM 64.8°F18.2°C 61.7°F16.5°C 90% 2.7 mph W4.3 kmh W 6.3 mph10.1 kmh 29.76 in1007.8 mb 0.00 in0.0 mm 0.00 in0.0 mm 0.00 in0.0 mm
05:17 AM 64.6°F18.1°C 61.5°F16.4°C 90% 2.9 mph WSW4.7 kmh WSW 5.4 mph8.7 kmh 29.76 in1007.8 mb 0.00 in0.0 mm 0.00 in0.0 mm 0.00 in0.0 mm
05:22 AM 64.6°F18.1°C 61.5°F16.4°C 90% 0.7 mph WNW1.1 kmh WNW 4.3 mph6.9 kmh 29.76 in1007.8 mb 0.00 in0.0 mm 0.00 in0.0 mm 0.00 in0.0 mm
05:27 AM 64.6°F18.1°C 61.5°F16.4°C 90% 2.2 mph WSW3.5 kmh WSW 4.3 mph6.9 kmh 29.76 in1007.8 mb 0.00 in0.0 mm 0.00 in0.0 mm 0.00 in0.0 mm
05:32 AM 64.6°F18.1°C 61.5°F16.4°C 90% 1.6 mph SW2.6 kmh SW 5.4 mph8.7 kmh 29.76 in1007.8 mb 0.00 in0.0 mm 0.00 in0.0 mm 0.00 in0.0 mm
05:37 AM 64.6°F18.1°C 61.5°F16.4°C 90% 3.6 mph SSW5.8 kmh SSW 6.3 mph10.1 kmh 29.76 in1007.8 mb 0.00 in0.0 mm 0.00 in0.0 mm 0.00 in0.0 mm
05:42 AM 64.6°F18.1°C 61.5°F16.4°C 90% 3.1 mph SW5.0 kmh SW 7.4 mph11.9 kmh 29.77 in1008.1 mb 0.00 in0.0 mm 0.00 in0.0 mm 0.00 in0.0 mm
05:47 AM 64.6°F18.1°C 61.5°F16.4°C 90% 3.1 mph SW5.0 kmh SW 6.3 mph10.1 kmh 29.77 in1008.1 mb 0.00 in0.0 mm 0.00 in0.0 mm 0.00 in0.0 mm
05:52 AM 64.6°F18.1°C 61.5°F16.4°C 90% 3.1 mph SW5.0 kmh SW 5.4 mph8.7 kmh 29.77 in1008.1 mb 0.00 in0.0 mm 0.00 in0.0 mm 0.00 in0.0 mm
05:57 AM 64.6°F18.1°C 61.5°F16.4°C 90% 3.1 mph SW5.0 kmh SW 6.3 mph10.1 kmh 29.77 in1008.1 mb 0.00 in0.0 mm 0.00 in0.0 mm 0.00 in0.0 mm
06:02 AM 64.6°F18.1°C 61.5°F16.4°C 90% 3.4 mph S5.5 kmh S 5.4 mph8.7 kmh 29.78 in1008.5 mb 0.00 in0.0 mm 0.00 in0.0 mm 0.00 in0.0 mm
06:07 AM 64.8°F18.2°C 61.7°F16.5°C 90% 2.2 mph SW3.5 kmh SW 4.3 mph6.9 kmh 29.78 in1008.5 mb 0.00 in0.0 mm 0.00 in0.0 mm 0.00 in0.0 mm
06:12 AM 64.8°F18.2°C 61.7°F16.5°C 90% 4.3 mph SSW6.9 kmh SSW 6.3 mph10.1 kmh 29.78 in1008.5 mb 0.00 in0.0 mm 0.00 in0.0 mm 0.00 in0.0 mm
06:17 AM 64.8°F18.2°C 61.5°F16.4°C 89% 3.6 mph SW5.8 kmh SW 6.3 mph10.1 kmh 29.78 in1008.5 mb 0.00 in0.0 mm 0.00 in0.0 mm 0.00 in0.0 mm
06:22 AM 64.8°F18.2°C 61.5°F16.4°C 89% 3.8 mph SSW6.1 kmh SSW 6.3 mph10.1 kmh 29.78 in1008.5 mb 0.00 in0.0 mm 0.00 in0.0 mm 0.00 in0.0 mm
06:27 AM 64.9°F18.3°C 61.7°F16.5°C 89% 1.6 mph SW2.6 kmh SW 4.3 mph6.9 kmh 29.78 in1008.5 mb 0.00 in0.0 mm 0.00 in0.0 mm 0.00 in0.0 mm
06:32 AM 64.9°F18.3°C 61.7°F16.5°C 89% 3.1 mph SSW5.0 kmh SSW 5.4 mph8.7 kmh 29.79 in1008.8 mb 0.00 in0.0 mm 0.00 in0.0 mm 0.00 in0.0 mm
06:37 AM 64.9°F18.3°C 61.7°F16.5°C 89% 2.2 mph SW3.5 kmh SW 6.3 mph10.1 kmh 29.78 in1008.5 mb 0.00 in0.0 mm 0.00 in0.0 mm 0.00 in0.0 mm
06:42 AM 65.1°F18.4°C 61.9°F16.6°C 89% 3.1 mph WSW5.0 kmh WSW 5.4 mph8.7 kmh 29.78 in1008.5 mb 0.00 in0.0 mm 0.00 in0.0 mm 0.00 in0.0 mm
06:47 AM 65.1°F18.4°C 61.5°F16.4°C 88% 2.0 mph SW3.2 kmh SW 6.3 mph10.1 kmh 29.79 in1008.8 mb 0.00 in0.0 mm 0.00 in0.0 mm 0.00 in0.0 mm
06:52 AM 65.1°F18.4°C 61.5°F16.4°C 88% 3.6 mph SSW5.8 kmh SSW 6.3 mph10.1 kmh 29.79 in1008.8 mb 0.00 in0.0 mm 0.00 in0.0 mm 0.00 in0.0 mm
06:57 AM 65.1°F18.4°C 61.5°F16.4°C 88% 2.9 mph SW4.7 kmh SW 6.3 mph10.1 kmh 29.79 in1008.8 mb 0.00 in0.0 mm 0.00 in0.0 mm 0.00 in0.0 mm
07:02 AM 65.3°F18.5°C 61.7°F16.5°C 88% 3.6 mph WSW5.8 kmh WSW 5.4 mph8.7 kmh 29.79 in1008.8 mb 0.00 in0.0 mm 0.00 in0.0 mm 0.00 in0.0 mm
07:07 AM 65.5°F18.6°C 61.5°F16.4°C 87% 2.7 mph S4.3 kmh S 5.4 mph8.7 kmh 29.79 in1008.8 mb 0.00 in0.0 mm 0.00 in0.0 mm 0.00 in0.0 mm
07:12 AM 65.7°F18.7°C 61.7°F16.5°C 87% 1.8 mph SW2.9 kmh SW 5.4 mph8.7 kmh 29.80 in1009.1 mb 0.00 in0.0 mm 0.00 in0.0 mm 0.00 in0.0 mm
07:17 AM 65.7°F18.7°C 61.7°F16.5°C 87% 0.2 mph SSW0.3 kmh SSW 5.4 mph8.7 kmh 29.80 in1009.1 mb 0.00 in0.0 mm 0.00 in0.0 mm 0.00 in0.0 mm
07:22 AM 65.8°F18.8°C 61.5°F16.4°C 86% 3.8 mph SW6.1 kmh SW 6.3 mph10.1 kmh 29.80 in1009.1 mb 0.00 in0.0 mm 0.00 in0.0 mm 0.00 in0.0 mm
07:27 AM 65.8°F18.8°C 61.5°F16.4°C 86% 1.6 mph SW2.6 kmh SW 6.3 mph10.1 kmh 29.80 in1009.1 mb 0.00 in0.0 mm 0.00 in0.0 mm 0.00 in0.0 mm
07:32 AM 65.8°F18.8°C 61.2°F16.2°C 85% 4.3 mph SW6.9 kmh SW 8.5 mph13.7 kmh 29.80 in1009.1 mb 0.00 in0.0 mm 0.00 in0.0 mm 0.00 in0.0 mm
07:37 AM 65.8°F18.8°C 61.2°F16.2°C 85% 2.7 mph SE4.3 kmh SE 6.3 mph10.1 kmh 29.80 in1009.1 mb 0.00 in0.0 mm 0.00 in0.0 mm 0.00 in0.0 mm
07:42 AM 65.8°F18.8°C 61.2°F16.2°C 85% 2.2 mph WSW3.5 kmh WSW 6.3 mph10.1 kmh 29.80 in1009.1 mb 0.00 in0.0 mm 0.00 in0.0 mm 0.00 in0.0 mm
07:47 AM 66.2°F19.0°C 61.5°F16.4°C 85% 2.5 mph WSW4.0 kmh WSW 5.4 mph8.7 kmh 29.80 in1009.1 mb 0.00 in0.0 mm 0.00 in0.0 mm 0.00 in0.0 mm
07:52 AM 66.4°F19.1°C 61.3°F16.3°C 84% 3.6 mph SSW5.8 kmh SSW 6.3 mph10.1 kmh 29.80 in1009.1 mb 0.00 in0.0 mm 0.00 in0.0 mm 0.00 in0.0 mm
07:57 AM 66.4°F19.1°C 61.3°F16.3°C 84% 1.8 mph SW2.9 kmh SW 6.3 mph10.1 kmh 29.80 in1009.1 mb 0.00 in0.0 mm 0.00 in0.0 mm 0.00 in0.0 mm
08:02 AM 66.6°F19.2°C 61.2°F16.2°C 83% 2.2 mph SW3.5 kmh SW 6.3 mph10.1 kmh 29.80 in1009.1 mb 0.00 in0.0 mm 0.00 in0.0 mm 0.00 in0.0 mm
08:07 AM 66.6°F19.2°C 61.2°F16.2°C 83% 4.3 mph SW6.9 kmh SW 6.3 mph10.1 kmh 29.80 in1009.1 mb 0.00 in0.0 mm 0.00 in0.0 mm 0.00 in0.0 mm
08:12 AM 66.7°F19.3°C 61.3°F16.3°C 83% 1.1 mph SSW1.8 kmh SSW 5.4 mph8.7 kmh 29.80 in1009.1 mb 0.00 in0.0 mm 0.00 in0.0 mm 0.00 in0.0 mm
08:17 AM 66.9°F19.4°C 61.2°F16.2°C 82% 3.8 mph WSW6.1 kmh WSW 6.3 mph10.1 kmh 29.80 in1009.1 mb 0.00 in0.0 mm 0.00 in0.0 mm 0.00 in0.0 mm
08:22 AM 67.1°F19.5°C 61.3°F16.3°C 82% 1.1 mph S1.8 kmh S 5.4 mph8.7 kmh 29.80 in1009.1 mb 0.00 in0.0 mm 0.00 in0.0 mm 0.00 in0.0 mm
08:27 AM 67.5°F19.7°C 61.3°F16.3°C 81% 2.9 mph WSW4.7 kmh WSW 6.3 mph10.1 kmh 29.80 in1009.1 mb 0.00 in0.0 mm 0.00 in0.0 mm 0.00 in0.0 mm
08:32 AM 67.6°F19.8°C 61.2°F16.2°C 80% 2.2 mph SW3.5 kmh SW 6.3 mph10.1 kmh 29.80 in1009.1 mb 0.00 in0.0 mm 0.00 in0.0 mm 0.00 in0.0 mm
08:37 AM 67.8°F19.9°C 61.3°F16.3°C 80% 3.1 mph SW5.0 kmh SW 6.3 mph10.1 kmh 29.80 in1009.1 mb 0.00 in0.0 mm 0.00 in0.0 mm 0.00 in0.0 mm
08:42 AM 68.2°F20.1°C 61.7°F16.5°C 80% 0.2 mph SSW0.3 kmh SSW 7.4 mph11.9 kmh 29.80 in1009.1 mb 0.00 in0.0 mm 0.00 in0.0 mm 0.00 in0.0 mm
08:47 AM 68.4°F20.2°C 61.2°F16.2°C 78% 1.3 mph WNW2.1 kmh WNW 5.4 mph8.7 kmh 29.80 in1009.1 mb 0.00 in0.0 mm 0.00 in0.0 mm 0.00 in0.0 mm
08:52 AM 68.5°F20.3°C 61.3°F16.3°C 78% 4.0 mph SW6.4 kmh SW 8.5 mph13.7 kmh 29.80 in1009.1 mb 0.00 in0.0 mm 0.00 in0.0 mm 0.00 in0.0 mm
08:57 AM 68.5°F20.3°C 61.0°F16.1°C 77% 4.5 mph S7.2 kmh S 9.6 mph15.4 kmh 29.80 in1009.1 mb 0.00 in0.0 mm 0.00 in0.0 mm 0.00 in0.0 mm
09:02 AM 68.9°F20.5°C 61.3°F16.3°C 77% 2.9 mph SW4.7 kmh SW 9.6 mph15.4 kmh 29.79 in1008.8 mb 0.00 in0.0 mm 0.00 in0.0 mm 0.00 in0.0 mm
09:07 AM 69.1°F20.6°C 61.5°F16.4°C 77% 2.7 mph WSW4.3 kmh WSW 10.5 mph16.9 kmh 29.79 in1008.8 mb 0.00 in0.0 mm 0.00 in0.0 mm 0.00 in0.0 mm
09:12 AM 69.3°F20.7°C 61.3°F16.3°C 76% 3.1 mph W5.0 kmh W 9.6 mph15.4 kmh 29.79 in1008.8 mb 0.00 in0.0 mm 0.00 in0.0 mm 0.00 in0.0 mm
09:17 AM 69.6°F20.9°C 61.3°F16.3°C 75% 5.4 mph WSW8.7 kmh WSW 12.8 mph20.6 kmh 29.79 in1008.8 mb 0.00 in0.0 mm 0.00 in0.0 mm 0.00 in0.0 mm
09:22 AM 69.4°F20.8°C 61.2°F16.2°C 75% 5.1 mph SW8.2 kmh SW 10.5 mph16.9 kmh 29.79 in1008.8 mb 0.00 in0.0 mm 0.00 in0.0 mm 0.00 in0.0 mm
09:27 AM 69.6°F20.9°C 61.3°F16.3°C 75% 1.8 mph S2.9 kmh S 8.5 mph13.7 kmh 29.78 in1008.5 mb 0.00 in0.0 mm 0.00 in0.0 mm 0.00 in0.0 mm
09:32 AM 70.2°F21.2°C 61.5°F16.4°C 74% 3.6 mph WSW5.8 kmh WSW 8.5 mph13.7 kmh 29.78 in1008.5 mb 0.00 in0.0 mm 0.00 in0.0 mm 0.00 in0.0 mm
09:37 AM 70.5°F21.4°C 61.9°F16.6°C 74% 6.5 mph SSW10.5 kmh SSW 11.6 mph18.7 kmh 29.78 in1008.5 mb 0.00 in0.0 mm 0.00 in0.0 mm 0.00 in0.0 mm
09:42 AM 70.3°F21.3°C 61.3°F16.3°C 73% 4.7 mph W7.6 kmh W 11.6 mph18.7 kmh 29.78 in1008.5 mb 0.00 in0.0 mm 0.00 in0.0 mm 0.00 in0.0 mm
09:47 AM 70.3°F21.3°C 61.3°F16.3°C 73% 2.2 mph WSW3.5 kmh WSW 8.5 mph13.7 kmh 29.78 in1008.5 mb 0.00 in0.0 mm 0.00 in0.0 mm 0.00 in0.0 mm
09:52 AM 70.5°F21.4°C 61.5°F16.4°C 73% 7.4 mph SW11.9 kmh SW 10.5 mph16.9 kmh 29.78 in1008.5 mb 0.00 in0.0 mm 0.00 in0.0 mm 0.00 in0.0 mm
09:57 AM 70.5°F21.4°C 61.5°F16.4°C 73% 4.3 mph SW6.9 kmh SW 12.8 mph20.6 kmh 29.78 in1008.5 mb 0.00 in0.0 mm 0.00 in0.0 mm 0.00 in0.0 mm
10:02 AM 70.5°F21.4°C 61.0°F16.1°C 72% 3.1 mph S5.0 kmh S 8.5 mph13.7 kmh 29.78 in1008.5 mb 0.00 in0.0 mm 0.00 in0.0 mm 0.00 in0.0 mm
10:07 AM 70.9°F21.6°C 61.3°F16.3°C 72% 5.1 mph WNW8.2 kmh WNW 11.6 mph18.7 kmh 29.78 in1008.5 mb 0.00 in0.0 mm 0.00 in0.0 mm 0.00 in0.0 mm
10:12 AM 70.5°F21.4°C 61.0°F16.1°C 72% 5.1 mph SSW8.2 kmh SSW 11.6 mph18.7 kmh 29.78 in1008.5 mb 0.00 in0.0 mm 0.00 in0.0 mm 0.00 in0.0 mm
10:17 AM 71.1°F21.7°C 61.5°F16.4°C 72% 5.4 mph SSW8.7 kmh SSW 11.6 mph18.7 kmh 29.78 in1008.5 mb 0.00 in0.0 mm 0.00 in0.0 mm 0.00 in0.0 mm
10:22 AM 71.6°F22.0°C 61.3°F16.3°C 70% 6.7 mph SW10.8 kmh SW 12.8 mph20.6 kmh 29.78 in1008.5 mb 0.00 in0.0 mm 0.00 in0.0 mm 0.00 in0.0 mm
10:27 AM 71.8°F22.1°C 62.2°F16.8°C 72% 4.5 mph S7.2 kmh S 10.5 mph16.9 kmh 29.78 in1008.5 mb 0.00 in0.0 mm 0.00 in0.0 mm 0.00 in0.0 mm
10:32 AM 72.0°F22.2°C 61.7°F16.5°C 70% 6.7 mph WSW10.8 kmh WSW 12.8 mph20.6 kmh 29.78 in1008.5 mb 0.00 in0.0 mm 0.00 in0.0 mm 0.00 in0.0 mm
10:37 AM 71.6°F22.0°C 61.7°F16.5°C 71% 5.4 mph W8.7 kmh W 12.8 mph20.6 kmh 29.78 in1008.5 mb 0.00 in0.0 mm 0.00 in0.0 mm 0.00 in0.0 mm
10:42 AM 71.4°F21.9°C 61.2°F16.2°C 70% 7.8 mph WNW12.6 kmh WNW 12.8 mph20.6 kmh 29.78 in1008.5 mb 0.00 in0.0 mm 0.00 in0.0 mm 0.00 in0.0 mm
10:47 AM 71.2°F21.8°C 61.3°F16.3°C 71% 5.1 mph SW8.2 kmh SW 12.8 mph20.6 kmh 29.78 in1008.5 mb 0.00 in0.0 mm 0.00 in0.0 mm 0.00 in0.0 mm
10:52 AM 71.4°F21.9°C 61.5°F16.4°C 71% 7.8 mph WSW12.6 kmh WSW 12.8 mph20.6 kmh 29.78 in1008.5 mb 0.00 in0.0 mm 0.00 in0.0 mm 0.00 in0.0 mm
10:57 AM 71.4°F21.9°C 61.2°F16.2°C 70% 7.6 mph SW12.2 kmh SW 12.8 mph20.6 kmh 29.78 in1008.5 mb 0.00 in0.0 mm 0.00 in0.0 mm 0.00 in0.0 mm
11:02 AM 71.8°F22.1°C 61.5°F16.4°C 70% 6.7 mph SW10.8 kmh SW 13.9 mph22.4 kmh 29.78 in1008.5 mb 0.00 in0.0 mm 0.00 in0.0 mm 0.00 in0.0 mm
11:07 AM 72.0°F22.2°C 61.7°F16.5°C 70% 3.4 mph SW5.5 kmh SW 12.8 mph20.6 kmh 29.78 in1008.5 mb 0.00 in0.0 mm 0.00 in0.0 mm 0.00 in0.0 mm
11:12 AM 72.0°F22.2°C 61.7°F16.5°C 70% 7.8 mph SW12.6 kmh SW 14.8 mph23.8 kmh 29.78 in1008.5 mb 0.00 in0.0 mm 0.00 in0.0 mm 0.00 in0.0 mm
11:17 AM 72.0°F22.2°C 61.7°F16.5°C 70% 7.2 mph SW11.6 kmh SW 13.9 mph22.4 kmh 29.78 in1008.5 mb 0.00 in0.0 mm 0.00 in0.0 mm 0.00 in0.0 mm
11:22 AM 72.1°F22.3°C 61.9°F16.6°C 70% 4.7 mph S7.6 kmh S 12.8 mph20.6 kmh 29.78 in1008.5 mb 0.00 in0.0 mm 0.00 in0.0 mm 0.00 in0.0 mm
11:27 AM 72.3°F22.4°C 62.1°F16.7°C 70% 6.5 mph SW10.5 kmh SW 14.8 mph23.8 kmh 29.78 in1008.5 mb 0.00 in0.0 mm 0.00 in0.0 mm 0.00 in0.0 mm
11:32 AM 72.9°F22.7°C 61.7°F16.5°C 68% 6.7 mph S10.8 kmh S 11.6 mph18.7 kmh 29.78 in1008.5 mb 0.00 in0.0 mm 0.00 in0.0 mm 0.00 in0.0 mm
11:37 AM 72.3°F22.4°C 61.2°F16.2°C 68% 8.9 mph SSW14.3 kmh SSW 15.9 mph25.6 kmh 29.78 in1008.5 mb 0.00 in0.0 mm 0.00 in0.0 mm 0.00 in0.0 mm
11:42 AM 72.5°F22.5°C 61.7°F16.5°C 69% 6.5 mph SW10.5 kmh SW 11.6 mph18.7 kmh 29.78 in1008.5 mb 0.00 in0.0 mm 0.00 in0.0 mm 0.00 in0.0 mm
11:47 AM 72.9°F22.7°C 61.7°F16.5°C 68% 7.6 mph W12.2 kmh W 12.8 mph20.6 kmh 29.78 in1008.5 mb 0.00 in0.0 mm 0.00 in0.0 mm 0.00 in0.0 mm
11:52 AM 72.7°F22.6°C 61.5°F16.4°C 68% 6.0 mph SW9.7 kmh SW 14.8 mph23.8 kmh 29.77 in1008.1 mb 0.00 in0.0 mm 0.00 in0.0 mm 0.00 in0.0 mm
11:57 AM 72.3°F22.4°C 62.1°F16.7°C 70% 3.6 mph SSW5.8 kmh SSW 17.0 mph27.4 kmh 29.77 in1008.1 mb 0.00 in0.0 mm 0.00 in0.0 mm 0.00 in0.0 mm
12:02 PM 72.7°F22.6°C 61.9°F16.6°C 69% 6.5 mph SW10.5 kmh SW 12.8 mph20.6 kmh 29.77 in1008.1 mb 0.00 in0.0 mm 0.00 in0.0 mm 0.00 in0.0 mm
12:07 PM 72.7°F22.6°C 61.9°F16.6°C 69% 7.8 mph S12.6 kmh S 13.9 mph22.4 kmh 29.77 in1008.1 mb 0.00 in0.0 mm 0.00 in0.0 mm 0.00 in0.0 mm
12:12 PM 72.7°F22.6°C 61.5°F16.4°C 68% 6.7 mph SW10.8 kmh SW 11.6 mph18.7 kmh 29.77 in1008.1 mb 0.00 in0.0 mm 0.00 in0.0 mm 0.00 in0.0 mm
12:17 PM 73.0°F22.8°C 62.2°F16.8°C 69% 5.8 mph WSW9.3 kmh WSW 11.6 mph18.7 kmh 29.77 in1008.1 mb 0.00 in0.0 mm 0.00 in0.0 mm 0.00 in0.0 mm
12:22 PM 72.9°F22.7°C 62.1°F16.7°C 69% 6.3 mph SW10.1 kmh SW 11.6 mph18.7 kmh 29.76 in1007.8 mb 0.00 in0.0 mm 0.00 in0.0 mm 0.00 in0.0 mm
12:27 PM 73.4°F23.0°C 62.2°F16.8°C 68% 6.9 mph SW11.1 kmh SW 12.8 mph20.6 kmh 29.76 in1007.8 mb 0.00 in0.0 mm 0.00 in0.0 mm 0.00 in0.0 mm
12:32 PM 73.0°F22.8°C 61.9°F16.6°C 68% 6.7 mph SW10.8 kmh SW 12.8 mph20.6 kmh 29.76 in1007.8 mb 0.00 in0.0 mm 0.00 in0.0 mm 0.00 in0.0 mm
12:37 PM 73.8°F23.2°C 62.6°F17.0°C 68% 5.6 mph WSW9.0 kmh WSW 10.5 mph16.9 kmh 29.76 in1007.8 mb 0.00 in0.0 mm 0.00 in0.0 mm 0.00 in0.0 mm
12:42 PM 73.2°F22.9°C 61.2°F16.2°C 66% 10.7 mph SW17.2 kmh SW 14.8 mph23.8 kmh 29.76 in1007.8 mb 0.00 in0.0 mm 0.00 in0.0 mm 0.00 in0.0 mm
12:47 PM 72.9°F22.7°C 62.1°F16.7°C 69% 8.3 mph SSW13.4 kmh SSW 11.6 mph18.7 kmh 29.76 in1007.8 mb 0.00 in0.0 mm 0.00 in0.0 mm 0.00 in0.0 mm
12:52 PM 72.7°F22.6°C 61.9°F16.6°C 69% 6.5 mph WSW10.5 kmh WSW 11.6 mph18.7 kmh 29.76 in1007.8 mb 0.00 in0.0 mm 0.00 in0.0 mm 0.00 in0.0 mm
12:57 PM 72.9°F22.7°C 62.1°F16.7°C 69% 6.0 mph SW9.7 kmh SW 14.8 mph23.8 kmh 29.76 in1007.8 mb 0.00 in0.0 mm 0.00 in0.0 mm 0.00 in0.0 mm
01:02 PM 73.0°F22.8°C 61.9°F16.6°C 68% 6.0 mph SSW9.7 kmh SSW 10.5 mph16.9 kmh 29.75 in1007.5 mb 0.00 in0.0 mm 0.00 in0.0 mm 0.00 in0.0 mm
01:07 PM 73.0°F22.8°C 62.2°F16.8°C 69% 8.3 mph SW13.4 kmh SW 14.8 mph23.8 kmh 29.75 in1007.5 mb 0.00 in0.0 mm 0.00 in0.0 mm 0.00 in0.0 mm
01:12 PM 73.2°F22.9°C 62.1°F16.7°C 68% 6.3 mph S10.1 kmh S 12.8 mph20.6 kmh 29.75 in1007.5 mb 0.00 in0.0 mm 0.00 in0.0 mm 0.00 in0.0 mm
01:17 PM 73.8°F23.2°C 63.0°F17.2°C 69% 4.0 mph SSW6.4 kmh SSW 9.6 mph15.4 kmh 29.75 in1007.5 mb 0.00 in0.0 mm 0.00 in0.0 mm 0.00 in0.0 mm
01:22 PM 74.5°F23.6°C 62.8°F17.1°C 67% 5.4 mph SW8.7 kmh SW 10.5 mph16.9 kmh 29.75 in1007.5 mb 0.00 in0.0 mm 0.00 in0.0 mm 0.00 in0.0 mm
01:27 PM 74.5°F23.6°C 62.8°F17.1°C 67% 4.0 mph SW6.4 kmh SW 12.8 mph20.6 kmh 29.75 in1007.5 mb 0.00 in0.0 mm 0.00 in0.0 mm 0.00 in0.0 mm
01:32 PM 74.5°F23.6°C 62.4°F16.9°C 66% 7.6 mph S12.2 kmh S 13.9 mph22.4 kmh 29.75 in1007.5 mb 0.00 in0.0 mm 0.00 in0.0 mm 0.00 in0.0 mm
01:37 PM 74.3°F23.5°C 63.1°F17.3°C 68% 3.8 mph SSW6.1 kmh SSW 9.6 mph15.4 kmh 29.75 in1007.5 mb 0.00 in0.0 mm 0.00 in0.0 mm 0.00 in0.0 mm
01:42 PM 74.5°F23.6°C 62.8°F17.1°C 67% 4.7 mph SW7.6 kmh SW 11.6 mph18.7 kmh 29.75 in1007.5 mb 0.00 in0.0 mm 0.00 in0.0 mm 0.00 in0.0 mm
01:47 PM 74.7°F23.7°C 63.0°F17.2°C 67% 7.2 mph SW11.6 kmh SW 12.8 mph20.6 kmh 29.74 in1007.1 mb 0.00 in0.0 mm 0.00 in0.0 mm 0.00 in0.0 mm
01:52 PM 73.8°F23.2°C 62.6°F17.0°C 68% 6.7 mph SSW10.8 kmh SSW 11.6 mph18.7 kmh 29.74 in1007.1 mb 0.00 in0.0 mm 0.00 in0.0 mm 0.00 in0.0 mm
01:57 PM 74.3°F23.5°C 63.1°F17.3°C 68% 4.9 mph S7.9 kmh S 10.5 mph16.9 kmh 29.74 in1007.1 mb 0.00 in0.0 mm 0.00 in0.0 mm 0.00 in0.0 mm
02:02 PM 74.8°F23.8°C 63.1°F17.3°C 67% 4.0 mph WSW6.4 kmh WSW 9.6 mph15.4 kmh 29.74 in1007.1 mb 0.00 in0.0 mm 0.00 in0.0 mm 0.00 in0.0 mm
02:07 PM 74.1°F23.4°C 62.4°F16.9°C 67% 6.0 mph SSW9.7 kmh SSW 11.6 mph18.7 kmh 29.74 in1007.1 mb 0.00 in0.0 mm 0.00 in0.0 mm 0.00 in0.0 mm
02:12 PM 74.7°F23.7°C 63.0°F17.2°C 67% 3.6 mph S5.8 kmh S 12.8 mph20.6 kmh 29.73 in1006.8 mb 0.00 in0.0 mm 0.00 in0.0 mm 0.00 in0.0 mm
02:17 PM 75.4°F24.1°C 62.8°F17.1°C 65% 8.5 mph SW13.7 kmh SW 11.6 mph18.7 kmh 29.74 in1007.1 mb 0.00 in0.0 mm 0.00 in0.0 mm 0.00 in0.0 mm
02:22 PM 74.5°F23.6°C 62.4°F16.9°C 66% 7.2 mph SW11.6 kmh SW 12.8 mph20.6 kmh 29.74 in1007.1 mb 0.00 in0.0 mm 0.00 in0.0 mm 0.00 in0.0 mm
02:27 PM 74.8°F23.8°C 63.1°F17.3°C 67% 2.9 mph SW4.7 kmh SW 9.6 mph15.4 kmh 29.73 in1006.8 mb 0.00 in0.0 mm 0.00 in0.0 mm 0.00 in0.0 mm
02:32 PM 74.8°F23.8°C 62.2°F16.8°C 65% 3.6 mph SW5.8 kmh SW 11.6 mph18.7 kmh 29.74 in1007.1 mb 0.00 in0.0 mm 0.00 in0.0 mm 0.00 in0.0 mm
02:37 PM 74.1°F23.4°C 62.4°F16.9°C 67% 6.0 mph SW9.7 kmh SW 13.9 mph22.4 kmh 29.74 in1007.1 mb 0.00 in0.0 mm 0.00 in0.0 mm 0.00 in0.0 mm
02:42 PM 74.5°F23.6°C 62.4°F16.9°C 66% 5.4 mph SSW8.7 kmh SSW 11.6 mph18.7 kmh 29.73 in1006.8 mb 0.00 in0.0 mm 0.00 in0.0 mm 0.00 in0.0 mm
02:47 PM 74.8°F23.8°C 63.1°F17.3°C 67% 3.6 mph SSW5.8 kmh SSW 8.5 mph13.7 kmh 29.73 in1006.8 mb 0.00 in0.0 mm 0.00 in0.0 mm 0.00 in0.0 mm
02:52 PM 74.5°F23.6°C 62.8°F17.1°C 67% 8.7 mph SW14.0 kmh SW 12.8 mph20.6 kmh 29.73 in1006.8 mb 0.00 in0.0 mm 0.00 in0.0 mm 0.00 in0.0 mm
02:57 PM 74.5°F23.6°C 63.1°F17.3°C 68% 5.4 mph W8.7 kmh W 9.6 mph15.4 kmh 29.73 in1006.8 mb 0.00 in0.0 mm 0.00 in0.0 mm 0.00 in0.0 mm
03:02 PM 73.6°F23.1°C 62.8°F17.1°C 69% 4.7 mph WSW7.6 kmh WSW 10.5 mph16.9 kmh 29.73 in1006.8 mb 0.00 in0.0 mm 0.00 in0.0 mm 0.00 in0.0 mm
03:07 PM 73.9°F23.3°C 63.1°F17.3°C 69% 4.7 mph SW7.6 kmh SW 11.6 mph18.7 kmh 29.73 in1006.8 mb 0.00 in0.0 mm 0.00 in0.0 mm 0.00 in0.0 mm
03:12 PM 73.9°F23.3°C 62.2°F16.8°C 67% 8.3 mph SW13.4 kmh SW 13.9 mph22.4 kmh 29.73 in1006.8 mb 0.00 in0.0 mm 0.00 in0.0 mm 0.00 in0.0 mm
03:17 PM 73.8°F23.2°C 63.0°F17.2°C 69% 5.8 mph SW9.3 kmh SW 11.6 mph18.7 kmh 29.72 in1006.4 mb 0.00 in0.0 mm 0.00 in0.0 mm 0.00 in0.0 mm
03:22 PM 74.5°F23.6°C 62.8°F17.1°C 67% 6.9 mph SSW11.1 kmh SSW 9.6 mph15.4 kmh 29.73 in1006.8 mb 0.00 in0.0 mm 0.00 in0.0 mm 0.00 in0.0 mm
03:27 PM 73.9°F23.3°C 62.2°F16.8°C 67% 5.4 mph S8.7 kmh S 10.5 mph16.9 kmh 29.73 in1006.8 mb 0.00 in0.0 mm 0.00 in0.0 mm 0.00 in0.0 mm
03:32 PM 74.1°F23.4°C 63.0°F17.2°C 68% 5.8 mph SW9.3 kmh SW 10.5 mph16.9 kmh 29.72 in1006.4 mb 0.00 in0.0 mm 0.00 in0.0 mm 0.00 in0.0 mm
03:37 PM 74.1°F23.4°C 63.3°F17.4°C 69% 4.3 mph SW6.9 kmh SW 9.6 mph15.4 kmh 29.73 in1006.8 mb 0.00 in0.0 mm 0.00 in0.0 mm 0.00 in0.0 mm
03:42 PM 73.8°F23.2°C 63.0°F17.2°C 69% 5.6 mph S9.0 kmh S 11.6 mph18.7 kmh 29.73 in1006.8 mb 0.00 in0.0 mm 0.00 in0.0 mm 0.00 in0.0 mm
03:47 PM 73.2°F22.9°C 62.8°F17.1°C 70% 5.4 mph WSW8.7 kmh WSW 11.6 mph18.7 kmh 29.73 in1006.8 mb 0.00 in0.0 mm 0.00 in0.0 mm 0.00 in0.0 mm
03:52 PM 73.0°F22.8°C 62.6°F17.0°C 70% 7.4 mph SW11.9 kmh SW 12.8 mph20.6 kmh 29.73 in1006.8 mb 0.00 in0.0 mm 0.00 in0.0 mm 0.00 in0.0 mm
03:57 PM 73.2°F22.9°C 63.3°F17.4°C 71% 6.7 mph SW10.8 kmh SW 10.5 mph16.9 kmh 29.72 in1006.4 mb 0.00 in0.0 mm 0.00 in0.0 mm 0.00 in0.0 mm
04:02 PM 72.7°F22.6°C 62.8°F17.1°C 71% 4.7 mph SW7.6 kmh SW 10.5 mph16.9 kmh 29.72 in1006.4 mb 0.00 in0.0 mm 0.00 in0.0 mm 0.00 in0.0 mm
04:07 PM 72.7°F22.6°C 63.5°F17.5°C 73% 4.3 mph SSW6.9 kmh SSW 11.6 mph18.7 kmh 29.72 in1006.4 mb 0.00 in0.0 mm 0.00 in0.0 mm 0.00 in0.0 mm
04:12 PM 72.9°F22.7°C 63.0°F17.2°C 71% 5.6 mph SW9.0 kmh SW 10.5 mph16.9 kmh 29.72 in1006.4 mb 0.00 in0.0 mm 0.00 in0.0 mm 0.00 in0.0 mm
04:17 PM 72.9°F22.7°C 63.3°F17.4°C 72% 6.7 mph WSW10.8 kmh WSW 10.5 mph16.9 kmh 29.72 in1006.4 mb 0.00 in0.0 mm 0.00 in0.0 mm 0.00 in0.0 mm
04:22 PM 72.9°F22.7°C 63.3°F17.4°C 72% 5.6 mph SW9.0 kmh SW 12.8 mph20.6 kmh 29.72 in1006.4 mb 0.00 in0.0 mm 0.00 in0.0 mm 0.00 in0.0 mm
04:27 PM 72.9°F22.7°C 63.3°F17.4°C 72% 6.5 mph WSW10.5 kmh WSW 12.8 mph20.6 kmh 29.73 in1006.8 mb 0.00 in0.0 mm 0.00 in0.0 mm 0.00 in0.0 mm
04:32 PM 72.7°F22.6°C 63.1°F17.3°C 72% 5.8 mph SW9.3 kmh SW 10.5 mph16.9 kmh 29.72 in1006.4 mb 0.00 in0.0 mm 0.00 in0.0 mm 0.00 in0.0 mm
04:37 PM 72.3°F22.4°C 63.5°F17.5°C 74% 4.7 mph SW7.6 kmh SW 10.5 mph16.9 kmh 29.72 in1006.4 mb 0.00 in0.0 mm 0.00 in0.0 mm 0.00 in0.0 mm
04:42 PM 72.3°F22.4°C 62.8°F17.1°C 72% 6.5 mph SW10.5 kmh SW 12.8 mph20.6 kmh 29.72 in1006.4 mb 0.00 in0.0 mm 0.00 in0.0 mm 0.00 in0.0 mm
04:47 PM 72.3°F22.4°C 63.5°F17.5°C 74% 3.8 mph S6.1 kmh S 8.5 mph13.7 kmh 29.72 in1006.4 mb 0.00 in0.0 mm 0.00 in0.0 mm 0.00 in0.0 mm
04:52 PM 72.1°F22.3°C 63.0°F17.2°C 73% 4.5 mph W7.2 kmh W 11.6 mph18.7 kmh 29.72 in1006.4 mb 0.00 in0.0 mm 0.00 in0.0 mm 0.00 in0.0 mm
04:57 PM 72.0°F22.2°C 63.1°F17.3°C 74% 3.8 mph SW6.1 kmh SW 9.6 mph15.4 kmh 29.72 in1006.4 mb 0.00 in0.0 mm 0.00 in0.0 mm 0.00 in0.0 mm
05:02 PM 71.8°F22.1°C 62.6°F17.0°C 73% 3.8 mph SW6.1 kmh SW 11.6 mph18.7 kmh 29.72 in1006.4 mb 0.00 in0.0 mm 0.00 in0.0 mm 0.00 in0.0 mm
05:07 PM 72.0°F22.2°C 63.1°F17.3°C 74% 4.5 mph WSW7.2 kmh WSW 7.4 mph11.9 kmh 29.72 in1006.4 mb 0.00 in0.0 mm 0.00 in0.0 mm 0.00 in0.0 mm
05:12 PM 71.4°F21.9°C 62.8°F17.1°C 74% 4.5 mph SW7.2 kmh SW 8.5 mph13.7 kmh 29.72 in1006.4 mb 0.00 in0.0 mm 0.00 in0.0 mm 0.00 in0.0 mm
05:17 PM 71.1°F21.7°C 62.8°F17.1°C 75% 4.9 mph SSW7.9 kmh SSW 8.5 mph13.7 kmh 29.72 in1006.4 mb 0.00 in0.0 mm 0.00 in0.0 mm 0.00 in0.0 mm
05:22 PM 70.3°F21.3°C 62.8°F17.1°C 77% 3.4 mph SW5.5 kmh SW 9.6 mph15.4 kmh 29.73 in1006.8 mb 0.00 in0.0 mm 0.00 in0.0 mm 0.00 in0.0 mm
05:27 PM 70.2°F21.2°C 63.0°F17.2°C 78% 3.8 mph WSW6.1 kmh WSW 7.4 mph11.9 kmh 29.72 in1006.4 mb 0.00 in0.0 mm 0.00 in0.0 mm 0.00 in0.0 mm
05:32 PM 69.8°F21.0°C 63.0°F17.2°C 79% 3.8 mph SW6.1 kmh SW 8.5 mph13.7 kmh 29.73 in1006.8 mb 0.00 in0.0 mm 0.00 in0.0 mm 0.00 in0.0 mm
05:37 PM 69.6°F20.9°C 62.8°F17.1°C 79% 2.9 mph SW4.7 kmh SW 6.3 mph10.1 kmh 29.73 in1006.8 mb 0.00 in0.0 mm 0.00 in0.0 mm 0.00 in0.0 mm
05:42 PM 69.3°F20.7°C 62.8°F17.1°C 80% 5.1 mph S8.2 kmh S 10.5 mph16.9 kmh 29.73 in1006.8 mb 0.00 in0.0 mm 0.00 in0.0 mm 0.00 in0.0 mm
05:47 PM 69.1°F20.6°C 63.0°F17.2°C 81% 4.3 mph SW6.9 kmh SW 7.4 mph11.9 kmh 29.73 in1006.8 mb 0.00 in0.0 mm 0.00 in0.0 mm 0.00 in0.0 mm
05:52 PM 68.7°F20.4°C 62.6°F17.0°C 81% 3.6 mph SSW5.8 kmh SSW 7.4 mph11.9 kmh 29.73 in1006.8 mb 0.00 in0.0 mm 0.00 in0.0 mm 0.00 in0.0 mm
05:57 PM 68.4°F20.2°C 62.6°F17.0°C 82% 3.4 mph SW5.5 kmh SW 7.4 mph11.9 kmh 29.73 in1006.8 mb 0.00 in0.0 mm 0.00 in0.0 mm 0.00 in0.0 mm
06:02 PM 68.2°F20.1°C 62.4°F16.9°C 82% 4.7 mph SW7.6 kmh SW 6.3 mph10.1 kmh 29.73 in1006.8 mb 0.00 in0.0 mm 0.00 in0.0 mm 0.00 in0.0 mm
06:07 PM 68.0°F20.0°C 62.6°F17.0°C 83% 4.3 mph SW6.9 kmh SW 7.4 mph11.9 kmh 29.73 in1006.8 mb 0.00 in0.0 mm 0.00 in0.0 mm 0.00 in0.0 mm
06:12 PM 67.8°F19.9°C 62.4°F16.9°C 83% 4.0 mph WSW6.4 kmh WSW 7.4 mph11.9 kmh 29.73 in1006.8 mb 0.00 in0.0 mm 0.00 in0.0 mm 0.00 in0.0 mm
06:17 PM 67.6°F19.8°C 62.6°F17.0°C 84% 5.4 mph SSW8.7 kmh SSW 7.4 mph11.9 kmh 29.73 in1006.8 mb 0.00 in0.0 mm 0.00 in0.0 mm 0.00 in0.0 mm
06:22 PM 67.5°F19.7°C 62.4°F16.9°C 84% 3.6 mph SSW5.8 kmh SSW 6.3 mph10.1 kmh 29.73 in1006.8 mb 0.00 in0.0 mm 0.00 in0.0 mm 0.00 in0.0 mm
06:27 PM 67.5°F19.7°C 62.8°F17.1°C 85% 3.8 mph SSW6.1 kmh SSW 6.3 mph10.1 kmh 29.73 in1006.8 mb 0.00 in0.0 mm 0.00 in0.0 mm 0.00 in0.0 mm
06:32 PM 67.3°F19.6°C 62.6°F17.0°C 85% 3.4 mph SW5.5 kmh SW 6.3 mph10.1 kmh 29.73 in1006.8 mb 0.00 in0.0 mm 0.00 in0.0 mm 0.00 in0.0 mm
06:37 PM 67.1°F19.5°C 62.4°F16.9°C 85% 3.4 mph SW5.5 kmh SW 7.4 mph11.9 kmh 29.73 in1006.8 mb 0.00 in0.0 mm 0.00 in0.0 mm 0.00 in0.0 mm
06:42 PM 67.1°F19.5°C 62.4°F16.9°C 85% 3.6 mph SSW5.8 kmh SSW 6.3 mph10.1 kmh 29.73 in1006.8 mb 0.00 in0.0 mm 0.00 in0.0 mm 0.00 in0.0 mm
06:47 PM 67.1°F19.5°C 62.4°F16.9°C 85% 3.1 mph SW5.0 kmh SW 6.3 mph10.1 kmh 29.73 in1006.8 mb 0.00 in0.0 mm 0.00 in0.0 mm 0.00 in0.0 mm
06:52 PM 67.1°F19.5°C 62.8°F17.1°C 86% 2.2 mph SW3.5 kmh SW 5.4 mph8.7 kmh 29.73 in1006.8 mb 0.00 in0.0 mm 0.00 in0.0 mm 0.00 in0.0 mm
06:57 PM 66.9°F19.4°C 62.2°F16.8°C 85% 2.0 mph SSW3.2 kmh SSW 5.4 mph8.7 kmh 29.74 in1007.1 mb 0.00 in0.0 mm 0.00 in0.0 mm 0.00 in0.0 mm
07:02 PM 66.9°F19.4°C 62.6°F17.0°C 86% 2.0 mph SSW3.2 kmh SSW 5.4 mph8.7 kmh 29.74 in1007.1 mb 0.00 in0.0 mm 0.00 in0.0 mm 0.00 in0.0 mm
07:07 PM 66.9°F19.4°C 62.6°F17.0°C 86% 0.7 mph WSW1.1 kmh WSW 4.3 mph6.9 kmh 29.74 in1007.1 mb 0.00 in0.0 mm 0.00 in0.0 mm 0.00 in0.0 mm
07:12 PM 66.9°F19.4°C 62.6°F17.0°C 86% 0.9 mph SW1.4 kmh SW 3.1 mph5.0 kmh 29.74 in1007.1 mb 0.00 in0.0 mm 0.00 in0.0 mm 0.00 in0.0 mm
07:17 PM 66.7°F19.3°C 62.4°F16.9°C 86% Calm Calm -- 29.74 in1007.1 mb 0.00 in0.0 mm 0.00 in0.0 mm 0.00 in0.0 mm
07:22 PM 66.7°F19.3°C 62.4°F16.9°C 86% Calm Calm 1.1 mph1.8 kmh 29.74 in1007.1 mb 0.00 in0.0 mm 0.00 in0.0 mm 0.00 in0.0 mm
07:27 PM 66.6°F19.2°C 62.2°F16.8°C 86% 0.2 mph SW0.3 kmh SW 1.1 mph1.8 kmh 29.75 in1007.5 mb 0.00 in0.0 mm 0.00 in0.0 mm 0.00 in0.0 mm
07:32 PM 66.6°F19.2°C 62.2°F16.8°C 86% Calm Calm -- 29.75 in1007.5 mb 0.00 in0.0 mm 0.00 in0.0 mm 0.00 in0.0 mm
07:37 PM 66.6°F19.2°C 62.6°F17.0°C 87% Calm Calm 3.1 mph5.0 kmh 29.75 in1007.5 mb 0.00 in0.0 mm 0.00 in0.0 mm 0.00 in0.0 mm
07:42 PM 66.6°F19.2°C 62.6°F17.0°C 87% Calm Calm -- 29.75 in1007.5 mb 0.00 in0.0 mm 0.00 in0.0 mm 0.00 in0.0 mm
07:47 PM 66.4°F19.1°C 62.4°F16.9°C 87% Calm Calm -- 29.75 in1007.5 mb 0.00 in0.0 mm 0.00 in0.0 mm 0.00 in0.0 mm
07:52 PM 66.4°F19.1°C 62.4°F16.9°C 87% 0.7 mph SW1.1 kmh SW 2.0 mph3.2 kmh 29.75 in1007.5 mb 0.00 in0.0 mm 0.00 in0.0 mm 0.00 in0.0 mm
07:57 PM 66.4°F19.1°C 62.4°F16.9°C 87% 1.3 mph SW2.1 kmh SW 3.1 mph5.0 kmh 29.75 in1007.5 mb 0.00 in0.0 mm 0.00 in0.0 mm 0.00 in0.0 mm
08:02 PM 66.4°F19.1°C 62.4°F16.9°C 87% 0.9 mph SSW1.4 kmh SSW 3.1 mph5.0 kmh 29.75 in1007.5 mb 0.00 in0.0 mm 0.00 in0.0 mm 0.00 in0.0 mm
08:07 PM 66.4°F19.1°C 62.4°F16.9°C 87% 0.7 mph SE1.1 kmh SE 3.1 mph5.0 kmh 29.75 in1007.5 mb 0.00 in0.0 mm 0.00 in0.0 mm 0.00 in0.0 mm
08:12 PM 66.4°F19.1°C 62.4°F16.9°C 87% Calm Calm 3.1 mph5.0 kmh 29.75 in1007.5 mb 0.00 in0.0 mm 0.00 in0.0 mm 0.00 in0.0 mm
08:17 PM 66.4°F19.1°C 62.4°F16.9°C 87% 1.1 mph SSE1.8 kmh SSE 2.0 mph3.2 kmh 29.75 in1007.5 mb 0.00 in0.0 mm 0.00 in0.0 mm 0.00 in0.0 mm
08:22 PM 66.2°F19.0°C 62.2°F16.8°C 87% Calm Calm 1.1 mph1.8 kmh 29.75 in1007.5 mb 0.00 in0.0 mm 0.00 in0.0 mm 0.00 in0.0 mm
08:27 PM 66.0°F18.9°C 62.1°F16.7°C 87% Calm Calm -- 29.75 in1007.5 mb 0.00 in0.0 mm 0.00 in0.0 mm 0.00 in0.0 mm
08:32 PM 66.0°F18.9°C 62.1°F16.7°C 87% Calm Calm -- 29.75 in1007.5 mb 0.00 in0.0 mm 0.00 in0.0 mm 0.00 in0.0 mm
08:37 PM 66.0°F18.9°C 62.1°F16.7°C 87% Calm Calm 1.1 mph1.8 kmh 29.75 in1007.5 mb 0.00 in0.0 mm 0.00 in0.0 mm 0.00 in0.0 mm
08:42 PM 65.8°F18.8°C 62.2°F16.8°C 88% 0.4 mph SW0.6 kmh SW 3.1 mph5.0 kmh 29.75 in1007.5 mb 0.00 in0.0 mm 0.00 in0.0 mm 0.00 in0.0 mm
08:47 PM 66.0°F18.9°C 62.4°F16.9°C 88% 0.9 mph SE1.4 kmh SE 3.1 mph5.0 kmh 29.75 in1007.5 mb 0.00 in0.0 mm 0.00 in0.0 mm 0.00 in0.0 mm
08:52 PM 66.0°F18.9°C 62.4°F16.9°C 88% 0.4 mph SW0.6 kmh SW 2.0 mph3.2 kmh 29.75 in1007.5 mb 0.00 in0.0 mm 0.00 in0.0 mm 0.00 in0.0 mm
08:57 PM 66.0°F18.9°C 62.4°F16.9°C 88% 1.1 mph SSW1.8 kmh SSW 3.1 mph5.0 kmh 29.75 in1007.5 mb 0.00 in0.0 mm 0.00 in0.0 mm 0.00 in0.0 mm
09:02 PM 65.8°F18.8°C 62.2°F16.8°C 88% Calm Calm 4.3 mph6.9 kmh 29.75 in1007.5 mb 0.00 in0.0 mm 0.00 in0.0 mm 0.00 in0.0 mm
09:07 PM 65.8°F18.8°C 61.9°F16.6°C 87% 0.7 mph SW1.1 kmh SW 3.1 mph5.0 kmh 29.75 in1007.5 mb 0.00 in0.0 mm 0.00 in0.0 mm 0.00 in0.0 mm
09:12 PM 65.7°F18.7°C 61.7°F16.5°C 87% Calm Calm 3.1 mph5.0 kmh 29.75 in1007.5 mb 0.00 in0.0 mm 0.00 in0.0 mm 0.00 in0.0 mm
09:17 PM 65.7°F18.7°C 62.1°F16.7°C 88% 0.4 mph SW0.6 kmh SW 2.0 mph3.2 kmh 29.75 in1007.5 mb 0.00 in0.0 mm 0.00 in0.0 mm 0.00 in0.0 mm
09:22 PM 65.7°F18.7°C 62.1°F16.7°C 88% 0.9 mph SW1.4 kmh SW 3.1 mph5.0 kmh 29.75 in1007.5 mb 0.00 in0.0 mm 0.00 in0.0 mm 0.00 in0.0 mm
09:27 PM 65.8°F18.8°C 62.2°F16.8°C 88% Calm Calm 2.0 mph3.2 kmh 29.75 in1007.5 mb 0.00 in0.0 mm 0.00 in0.0 mm 0.00 in0.0 mm
09:32 PM 65.8°F18.8°C 62.2°F16.8°C 88% 1.6 mph WSW2.6 kmh WSW 4.3 mph6.9 kmh 29.75 in1007.5 mb 0.00 in0.0 mm 0.00 in0.0 mm 0.00 in0.0 mm
09:37 PM 65.8°F18.8°C 62.2°F16.8°C 88% Calm Calm 3.1 mph5.0 kmh 29.75 in1007.5 mb 0.00 in0.0 mm 0.00 in0.0 mm 0.00 in0.0 mm
09:42 PM 65.8°F18.8°C 62.2°F16.8°C 88% Calm Calm 2.0 mph3.2 kmh 29.76 in1007.8 mb 0.00 in0.0 mm 0.00 in0.0 mm 0.00 in0.0 mm
09:47 PM 65.8°F18.8°C 62.2°F16.8°C 88% Calm Calm -- 29.76 in1007.8 mb 0.00 in0.0 mm 0.00 in0.0 mm 0.00 in0.0 mm
09:52 PM 65.7°F18.7°C 62.1°F16.7°C 88% Calm Calm -- 29.76 in1007.8 mb 0.00 in0.0 mm 0.00 in0.0 mm 0.00 in0.0 mm
09:57 PM 65.7°F18.7°C 62.1°F16.7°C 88% Calm Calm -- 29.76 in1007.8 mb 0.00 in0.0 mm 0.00 in0.0 mm 0.00 in0.0 mm
10:02 PM 65.5°F18.6°C 61.9°F16.6°C 88% Calm Calm -- 29.76 in1007.8 mb 0.00 in0.0 mm 0.00 in0.0 mm 0.00 in0.0 mm
10:07 PM 65.5°F18.6°C 61.9°F16.6°C 88% Calm Calm -- 29.76 in1007.8 mb 0.00 in0.0 mm 0.00 in0.0 mm 0.00 in0.0 mm
10:12 PM 65.1°F18.4°C 61.5°F16.4°C 88% Calm Calm -- 29.76 in1007.8 mb 0.00 in0.0 mm 0.00 in0.0 mm 0.00 in0.0 mm
10:17 PM 65.1°F18.4°C 61.5°F16.4°C 88% Calm Calm -- 29.76 in1007.8 mb 0.00 in0.0 mm 0.00 in0.0 mm 0.00 in0.0 mm
10:22 PM 64.9°F18.3°C 61.3°F16.3°C 88% Calm Calm -- 29.76 in1007.8 mb 0.00 in0.0 mm 0.00 in0.0 mm 0.00 in0.0 mm
10:27 PM 64.8°F18.2°C 61.2°F16.2°C 88% Calm Calm -- 29.76 in1007.8 mb 0.00 in0.0 mm 0.00 in0.0 mm 0.00 in0.0 mm
10:32 PM 64.8°F18.2°C 61.5°F16.4°C 89% Calm Calm -- 29.76 in1007.8 mb 0.00 in0.0 mm 0.00 in0.0 mm 0.00 in0.0 mm
10:37 PM 64.8°F18.2°C 61.5°F16.4°C 89% Calm Calm -- 29.76 in1007.8 mb 0.00 in0.0 mm 0.00 in0.0 mm 0.00 in0.0 mm
10:42 PM 64.8°F18.2°C 61.5°F16.4°C 89% Calm Calm -- 29.77 in1008.1 mb 0.00 in0.0 mm 0.00 in0.0 mm 0.00 in0.0 mm
10:47 PM 64.8°F18.2°C 61.5°F16.4°C 89% Calm Calm -- 29.77 in1008.1 mb 0.00 in0.0 mm 0.00 in0.0 mm 0.00 in0.0 mm
10:52 PM 64.9°F18.3°C 61.7°F16.5°C 89% Calm Calm -- 29.77 in1008.1 mb 0.00 in0.0 mm 0.00 in0.0 mm 0.00 in0.0 mm
10:57 PM 65.1°F18.4°C 61.9°F16.6°C 89% Calm Calm 2.0 mph3.2 kmh 29.77 in1008.1 mb 0.00 in0.0 mm 0.00 in0.0 mm 0.00 in0.0 mm
11:02 PM 65.1°F18.4°C 61.9°F16.6°C 89% 0.2 mph SE0.3 kmh SE 2.0 mph3.2 kmh 29.77 in1008.1 mb 0.00 in0.0 mm 0.00 in0.0 mm 0.00 in0.0 mm
11:07 PM 65.5°F18.6°C 62.2°F16.8°C 89% Calm Calm 3.1 mph5.0 kmh 29.77 in1008.1 mb 0.00 in0.0 mm 0.00 in0.0 mm 0.00 in0.0 mm
11:12 PM 65.5°F18.6°C 62.2°F16.8°C 89% 0.9 mph SSW1.4 kmh SSW 3.1 mph5.0 kmh 29.76 in1007.8 mb 0.00 in0.0 mm 0.00 in0.0 mm 0.00 in0.0 mm
11:17 PM 65.7°F18.7°C 62.2°F16.8°C 89% Calm Calm 2.0 mph3.2 kmh 29.76 in1007.8 mb 0.00 in0.0 mm 0.00 in0.0 mm 0.00 in0.0 mm
11:22 PM 65.5°F18.6°C 61.9°F16.6°C 88% Calm Calm -- 29.76 in1007.8 mb 0.00 in0.0 mm 0.00 in0.0 mm 0.00 in0.0 mm
11:27 PM 65.5°F18.6°C 61.9°F16.6°C 88% Calm Calm -- 29.76 in1007.8 mb 0.00 in0.0 mm 0.00 in0.0 mm 0.00 in0.0 mm
11:32 PM 65.3°F18.5°C 61.7°F16.5°C 88% Calm Calm -- 29.76 in1007.8 mb 0.00 in0.0 mm 0.00 in0.0 mm 0.00 in0.0 mm
11:37 PM 65.1°F18.4°C 61.5°F16.4°C 88% Calm Calm -- 29.76 in1007.8 mb 0.00 in0.0 mm 0.00 in0.0 mm 0.00 in0.0 mm
11:42 PM 64.9°F18.3°C 61.3°F16.3°C 88% Calm Calm -- 29.76 in1007.8 mb 0.00 in0.0 mm 0.00 in0.0 mm 0.00 in0.0 mm
11:47 PM 64.8°F18.2°C 61.2°F16.2°C 88% Calm Calm -- 29.76 in1007.8 mb 0.00 in0.0 mm 0.00 in0.0 mm 0.00 in0.0 mm
11:52 PM 64.6°F18.1°C 61.0°F16.1°C 88% Calm Calm -- 29.76 in1007.8 mb 0.00 in0.0 mm 0.00 in0.0 mm 0.00 in0.0 mm
11:57 PM 64.4°F18.0°C 60.8°F16.0°C 88% Calm Calm -- 29.76 in1007.8 mb 0.00 in0.0 mm 0.00 in0.0 mm 0.00 in0.0 mm